createdAt,value
2019-04-27T00:00:19.191Z,13182
2019-04-27T00:16:10.853Z,13169
2019-04-27T00:26:38.932Z,13179
2019-04-27T00:42:23.616Z,13214
2019-04-27T00:47:38.011Z,13196
2019-04-27T00:52:53.888Z,13208
2019-04-27T01:14:08.622Z,13158
2019-04-27T01:29:50.426Z,13160
2019-04-27T01:45:32.070Z,13175
2019-04-27T01:50:49.422Z,13185
2019-04-27T01:56:10.950Z,13181
2019-04-27T02:06:38.976Z,13183
2019-04-27T02:17:05.204Z,13189
2019-04-27T02:22:20.497Z,13195
2019-04-27T02:37:56.785Z,13180
2019-04-27T02:43:15.549Z,13195
2019-04-27T02:48:30.069Z,13199
2019-04-27T02:53:45.385Z,13186
2019-04-27T02:59:00.178Z,13188
2019-04-27T03:04:17.150Z,13206
2019-04-27T03:09:33.086Z,13203
2019-04-27T03:14:46.378Z,13192
2019-04-27T03:20:01.930Z,13207
2019-04-27T03:25:16.186Z,13219
2019-04-27T03:30:41.597Z,13228
2019-04-27T03:35:55.142Z,13286
2019-04-27T03:41:12.309Z,13284
2019-04-27T03:47:01.509Z,13283
2019-04-27T03:52:20.342Z,13267
2019-04-27T03:57:40.589Z,13275
2019-04-27T04:02:56.549Z,13263
2019-04-27T04:08:13.171Z,13266
2019-04-27T04:13:34.562Z,13265
2019-04-27T04:18:50.312Z,13272
2019-04-27T04:24:06.246Z,13277
2019-04-27T04:29:31.097Z,13293
2019-04-27T04:34:45.759Z,13311
2019-04-27T04:40:01.311Z,13316
2019-04-27T04:45:16.332Z,13318
2019-04-27T04:50:31.977Z,13298
2019-04-27T04:55:51.531Z,13311
2019-04-27T05:01:10.409Z,13435
2019-04-27T05:06:26.195Z,13563
2019-04-27T05:11:41.120Z,13484
2019-04-27T05:16:59.586Z,13409
2019-04-27T05:22:19.331Z,13318
2019-04-27T05:27:40.671Z,13431
2019-04-27T05:32:58.193Z,13494
2019-04-27T05:38:16.358Z,13304
2019-04-27T05:43:33.623Z,13288
2019-04-27T05:48:51.606Z,13302
2019-04-27T05:54:08.892Z,13296
2019-04-27T05:59:26.567Z,13173
2019-04-27T06:41:16.617Z,13239
2019-04-27T06:51:43.366Z,13212
2019-04-27T06:56:59.741Z,13277
2019-04-27T07:02:14.287Z,13300
2019-04-27T07:07:30.060Z,13334
2019-04-27T07:12:45.182Z,13322
2019-04-27T07:18:00.267Z,13341
2019-04-27T07:23:15.617Z,13266
2019-04-27T07:28:33.640Z,13337
2019-04-27T07:33:57.141Z,13354
2019-04-27T07:39:15.394Z,13260
2019-04-27T07:49:46.575Z,13187
2019-04-27T07:55:00.787Z,13208
2019-04-27T08:00:15.381Z,13262
2019-04-27T08:05:31.013Z,13330
2019-04-27T08:10:50.286Z,13219
2019-04-27T08:31:46.222Z,13151
2019-04-27T08:42:16.032Z,13200
2019-04-27T08:47:31.973Z,13204
2019-04-27T08:52:50.727Z,13151
2019-04-27T08:58:05.041Z,13274
2019-04-27T09:03:20.192Z,13157
2019-04-27T09:13:48.580Z,13195
2019-04-27T09:19:05.859Z,13191
2019-04-27T09:24:29.349Z,13241
2019-04-27T09:29:44.137Z,13273
2019-04-27T10:11:33.251Z,13195
2019-04-27T12:33:00.470Z,13171
2019-04-27T12:38:17.095Z,13177
2019-04-27T12:48:57.188Z,13271
2019-04-27T15:15:44.642Z,13157
2019-04-27T15:36:44.354Z,13191
2019-04-27T15:42:08.008Z,13210
2019-04-27T15:52:35.882Z,13202
2019-04-27T15:57:53.046Z,13199
2019-04-27T16:08:19.375Z,13188
2019-04-27T16:13:35.496Z,13184
2019-04-27T16:18:50.937Z,13187
2019-04-27T16:24:05.454Z,13190
2019-04-27T16:29:27.938Z,13172
2019-04-27T16:34:44.855Z,13199
2019-04-27T16:40:02.436Z,13212
2019-04-27T16:45:22.746Z,13254
2019-04-27T16:50:41.714Z,13233
2019-04-27T16:56:02.046Z,13267
2019-04-27T17:06:48.906Z,13259
2019-04-27T17:12:09.436Z,13253
2019-04-27T17:17:28.719Z,13247
2019-04-27T17:22:53.420Z,13255
2019-04-27T17:28:15.992Z,13326
2019-04-27T17:33:33.723Z,13352
2019-04-27T17:38:51.351Z,13258
2019-04-27T17:44:06.205Z,13271
2019-04-27T17:49:22.854Z,13307
2019-04-27T17:54:47.694Z,13254
2019-04-27T18:00:06.072Z,13339
2019-04-27T18:05:22.628Z,13265
2019-04-27T18:10:38.662Z,13323
2019-04-27T18:15:54.694Z,13385
2019-04-27T18:21:15.406Z,13304
2019-04-27T18:26:31.381Z,13350
2019-04-27T18:31:52.986Z,13263
2019-04-27T18:37:19.083Z,13288
2019-04-27T18:42:39.032Z,13285
2019-04-27T18:47:54.501Z,13294
2019-04-27T18:53:22.899Z,13255
2019-04-27T18:58:36.679Z,13306
2019-04-27T19:03:54.201Z,13279
2019-04-27T19:09:14.120Z,13252
2019-04-27T19:14:29.488Z,13216
2019-04-27T19:19:46.883Z,13174
2019-04-27T19:25:03.432Z,13319
2019-04-27T19:30:23.000Z,13273
2019-04-27T19:35:38.197Z,13307
2019-04-27T19:40:54.200Z,13250
2019-04-27T19:46:14.331Z,13288
2019-04-27T19:51:32.767Z,13277
2019-04-27T19:56:46.724Z,13285
2019-04-27T20:02:01.930Z,13224
2019-04-27T20:07:18.522Z,13266
2019-04-27T20:12:41.420Z,13297
2019-04-27T20:17:55.428Z,13284
2019-04-27T20:23:10.306Z,13280
2019-04-27T20:28:25.908Z,13245
2019-04-27T20:33:41.845Z,13211
2019-04-27T20:38:56.787Z,13259
2019-04-27T20:44:13.258Z,13254
2019-04-27T20:49:33.294Z,13265
2019-04-27T20:54:48.411Z,13259
2019-04-27T21:00:06.463Z,13274
2019-04-27T21:05:22.206Z,13294
2019-04-27T21:10:38.512Z,13238
2019-04-27T21:15:55.671Z,13271
2019-04-27T21:21:11.916Z,13290
2019-04-27T21:26:27.120Z,13298
2019-04-27T21:31:43.843Z,13265
2019-04-27T21:37:01.563Z,13263
2019-04-27T21:42:15.890Z,13265
2019-04-27T21:47:30.300Z,13269
2019-04-27T21:52:46.305Z,13312
2019-04-27T21:58:02.236Z,13179
2019-04-27T22:08:32.339Z,13165
2019-04-27T22:18:58.958Z,13184
2019-04-27T22:24:21.662Z,13285
2019-04-27T22:34:47.933Z,13242
2019-04-27T22:40:02.074Z,13183
2019-04-27T22:55:41.742Z,13382
2019-04-27T23:00:55.800Z,13177
2019-04-27T23:06:12.659Z,13241
2019-04-27T23:11:33.565Z,13286
2019-04-27T23:16:54.024Z,13288
2019-04-27T23:22:10.633Z,13232
2019-04-27T23:27:23.629Z,13284
2019-04-27T23:32:37.902Z,13173
2019-04-27T23:37:53.087Z,13256
2019-04-27T23:43:11.729Z,13254
2019-04-27T23:48:27.490Z,13243
2019-04-27T23:53:42.292Z,13167
2019-04-27T23:59:00.969Z,13267
